Terminal Aerodrome Forecast
Issued by NWS Wilmington, OH

Current Version | Previous Version | Graphics & Text | Print | Product List | Glossary On
Versions: 1 2 3 4 5 6 7 8 9 10 11 12 13 14 15 16 17
623
FTUS41 KILN 171136
TAFDAY
TAF
KDAY 171136Z 1712/1812 24006KT P6SM -SN OVC009
     FM171500 26007KT P6SM FEW012 SCT045
     FM171900 25009KT P6SM BKN120
     FM180000 23010KT P6SM SCT150 BKN200
     FM180700 22012KT P6SM SKC=

USA.gov is the U.S. government's official web portal to all federal, state and local government web resources and services.